Girolata — FPOD — position and weather

sailwx.info

Track history (hours):
 
Tides and Currents Weather Stations Pressure Air Temp Water Temp Dewpoint Dewpoint Depression Visibility Wind Speed Wind Dir Waves Ship Positions

Girolata

Last reported at 2020-Aug-09 23:30 UTC. Time now 2020-Aug-10 00:22 UTC.
Position N 40°50' E 012°19'.

Length 177 m; beam 27 m.

Type: Passenger vessel. MMSI: 226245000.

Date/timePositionNaut miles runAvg speedWind from/ knotsBaromVisibWave heightAir tempDewpointWater temp
2020-Aug-09 23:30N 40°50' E 012°19'41 3.3
2020-Aug-09 10:59N 41°29' E 012°00'3020.4
2020-Aug-09 09:30N 41°00' E 012°14'99 5.1
2020-Aug-08 14:10N 40°06' E 014°04'2621.2
2020-Aug-08 12:55N 40°32' E 014°09'1913.3
2020-Aug-08 11:30N 40°50' E 014°16'0 0.0
2020-Aug-08 11:00N 40°50' E 014°16'0 0.0
2020-Aug-08 09:30N 40°50' E 014°16'0 0.0
2020-Aug-08 09:00N 40°50' E 014°16'2 2.1
2020-Aug-08 08:00N 40°49' E 014°17'31 1.7
2020-Aug-07 13:59N 40°19' E 014°07'2222.1
2020-Aug-07 13:00N 40°40' E 014°11'1020.4
2020-Aug-07 12:30N 40°50' E 014°17'1 0.6
2020-Aug-07 10:27N 40°50' E 014°16'0 0.0
2020-Aug-07 10:00N 40°50' E 014°16'4713.1
2020-Aug-07 06:26N 40°04' E 014°04'9 0.6
2020-Aug-06 15:57N 40°13' E 014°04'3815.4
2020-Aug-06 13:30N 40°50' E 014°16'0 0.0
2020-Aug-05 13:58N 40°50' E 014°16'0 0.0
2020-Aug-05 12:58N 40°50' E 014°16'0 0.0
2020-Aug-05 12:28N 40°50' E 014°16'27 9.1
2020-Aug-05 09:30N 40°24' E 014°07'27 1.2
2020-Aug-04 10:59N 40°50' E 014°16'0 0.0
2020-Aug-04 09:29N 40°50' E 014°16'0 0.1
2020-Aug-04 09:01N 40°50' E 014°16'2 4.9
2020-Aug-04 08:31N 40°48' E 014°16'171 7.3
2020-Aug-03 09:08N 37°59' E 013°42'0 0.0
2020-Aug-03 09:00N 37°59' E 013°42'10018.1
2020-Aug-03 03:29N 39°33' E 012°57'7020.1
2020-Aug-03 00:00N 40°38' E 012°24'9214.1
2020-Aug-02 17:30N 42°06' E 011°47'77 9.9
2020-Aug-02 09:44N 40°52' E 012°19'11820.7
2020-Aug-02 04:02N 39°02' E 013°14'320.7
2020-Aug-02 03:52N 38°59' E 013°15'2520.9
2020-Aug-02 02:39N 38°35' E 013°27'108 8.5
2020-Aug-01 13:58N 40°19' E 014°06'3212.7
2020-Aug-01 11:26N 40°50' E 014°16'0 0.0
2020-Aug-01 09:26N 40°50' E 014°16'7217.3
2020-Aug-01 05:16N 39°39' E 013°59'32 2.3
2020-Jul-31 15:30N 40°11' E 014°04'4010.9
2020-Jul-31 11:49N 40°50' E 014°16'0 0.0
2020-Jul-31 10:00N 40°50' E 014°16'7019.8
2020-Jul-31 06:30N 39°42' E 014°00'1021.0
2020-Jul-31 06:00N 39°32' E 013°58'2120.7
2020-Jul-31 05:00N 39°11' E 013°55'2120.5
2020-Jul-31 04:01N 38°51' E 013°51'5217.0
2020-Jul-31 00:58N 37°59' E 013°42'0 0.0
2020-Jul-31 00:28N 37°59' E 013°42'  
Track history (hours):
 
Tides and Currents Weather Stations Pressure Air Temp Water Temp Dewpoint Dewpoint Depression Visibility Wind Speed Wind Dir Waves Ship Positions

Girolata

Last reported at 2020-Aug-09 23:30 UTC. Time now 2020-Aug-10 00:22 UTC.
Position N 40°50' E 012°19'.

Length 177 m; beam 27 m.

Type: Passenger vessel. MMSI: 226245000.

Date/timePositionNaut miles runAvg speedWind from/ knotsBaromVisibWave heightAir tempDewpointWater temp
2020-Aug-09 23:30N 40°50' E 012°19'41 3.3
2020-Aug-09 10:59N 41°29' E 012°00'3020.4
2020-Aug-09 09:30N 41°00' E 012°14'99 5.1
2020-Aug-08 14:10N 40°06' E 014°04'2621.2
2020-Aug-08 12:55N 40°32' E 014°09'1913.3
2020-Aug-08 11:30N 40°50' E 014°16'0 0.0
2020-Aug-08 11:00N 40°50' E 014°16'0 0.0
2020-Aug-08 09:30N 40°50' E 014°16'0 0.0
2020-Aug-08 09:00N 40°50' E 014°16'2 2.1
2020-Aug-08 08:00N 40°49' E 014°17'31 1.7
2020-Aug-07 13:59N 40°19' E 014°07'2222.1
2020-Aug-07 13:00N 40°40' E 014°11'1020.4
2020-Aug-07 12:30N 40°50' E 014°17'1 0.6
2020-Aug-07 10:27N 40°50' E 014°16'0 0.0
2020-Aug-07 10:00N 40°50' E 014°16'4713.1
2020-Aug-07 06:26N 40°04' E 014°04'9 0.6
2020-Aug-06 15:57N 40°13' E 014°04'3815.4
2020-Aug-06 13:30N 40°50' E 014°16'0 0.0
2020-Aug-05 13:58N 40°50' E 014°16'0 0.0
2020-Aug-05 12:58N 40°50' E 014°16'0 0.0
2020-Aug-05 12:28N 40°50' E 014°16'27 9.1
2020-Aug-05 09:30N 40°24' E 014°07'27 1.2
2020-Aug-04 10:59N 40°50' E 014°16'0 0.0
2020-Aug-04 09:29N 40°50' E 014°16'0 0.1
2020-Aug-04 09:01N 40°50' E 014°16'2 4.9
2020-Aug-04 08:31N 40°48' E 014°16'171 7.3
2020-Aug-03 09:08N 37°59' E 013°42'0 0.0
2020-Aug-03 09:00N 37°59' E 013°42'10018.1
2020-Aug-03 03:29N 39°33' E 012°57'7020.1
2020-Aug-03 00:00N 40°38' E 012°24'9214.1
2020-Aug-02 17:30N 42°06' E 011°47'77 9.9
2020-Aug-02 09:44N 40°52' E 012°19'11820.7
2020-Aug-02 04:02N 39°02' E 013°14'320.7
2020-Aug-02 03:52N 38°59' E 013°15'2520.9
2020-Aug-02 02:39N 38°35' E 013°27'108 8.5
2020-Aug-01 13:58N 40°19' E 014°06'3212.7
2020-Aug-01 11:26N 40°50' E 014°16'0 0.0
2020-Aug-01 09:26N 40°50' E 014°16'7217.3
2020-Aug-01 05:16N 39°39' E 013°59'32 2.3
2020-Jul-31 15:30N 40°11' E 014°04'4010.9
2020-Jul-31 11:49N 40°50' E 014°16'0 0.0
2020-Jul-31 10:00N 40°50' E 014°16'7019.8
2020-Jul-31 06:30N 39°42' E 014°00'1021.0
2020-Jul-31 06:00N 39°32' E 013°58'2120.7
2020-Jul-31 05:00N 39°11' E 013°55'2120.5
2020-Jul-31 04:01N 38°51' E 013°51'5217.0
2020-Jul-31 00:58N 37°59' E 013°42'0 0.0
2020-Jul-31 00:28N 37°59' E 013°42'  

Dump ship's entire track history